Time;durP1;ratioP1;P1;durP2;ratioP2;P2;SDS_P1;SDS_P2;PMS_P1;PMS_P2;Temp;Humidity;BMP_temperature;BMP_pressure;BME280_temperature;BME280_humidity;BME280_pressure;Samples;Min_cycle;Max_cycle;Signal;HPM_P1;HPM_P2
2022/09/03 00:00:10;;;;;;;3.35;2.00;;;;;;;22.94;40.21;101220.97;5113708;28;20048;-83
2022/09/03 00:02:56;;;;;;;4.72;2.10;;;;;;;22.93;40.33;101220.13;5092463;28;20043;-81
2022/09/03 00:05:45;;;;;;;3.47;2.20;;;;;;;22.92;40.38;101218.38;5094293;28;20497;-82
2022/09/03 00:10:58;;;;;;;3.17;1.95;;;;;;;22.93;40.88;101211.34;5110020;28;21208;-77
2022/09/03 00:13:31;;;;;;;3.35;2.20;;;;;;;22.93;40.83;101207.00;5111567;28;20048;-77
2022/09/03 00:15:58;;;;;;;3.08;1.98;;;;;;;22.94;40.76;101210.47;5092667;28;20148;-77
2022/09/03 00:18:29;;;;;;;3.05;1.98;;;;;;;22.93;40.79;101209.63;5076460;28;20043;-77
2022/09/03 00:21:07;;;;;;;4.38;2.03;;;;;;;22.92;40.76;101202.63;5093107;28;20139;-77
2022/09/03 00:23:39;;;;;;;3.05;1.70;;;;;;;22.93;40.80;101204.38;5110296;28;20048;-76
2022/09/03 00:26:21;;;;;;;4.32;2.10;;;;;;;22.93;40.67;101201.75;5082687;28;20055;-78
2022/09/03 00:29:06;;;;;;;3.58;2.20;;;;;;;22.92;40.86;101200.00;5125015;28;20156;-77
2022/09/03 00:31:37;;;;;;;2.63;1.90;;;;;;;22.93;40.90;101199.13;5100489;28;20058;-77
2022/09/03 00:36:46;;;;;;;3.72;1.75;;;;;;;22.93;40.82;101200.84;5110834;28;21289;-76
2022/09/03 00:39:16;;;;;;;3.03;1.75;;;;;;;22.93;40.96;101196.50;5093675;28;20051;-77
2022/09/03 00:41:58;;;;;;;2.55;1.80;;;;;;;22.93;41.00;101192.97;5091187;28;20154;-77
2022/09/03 00:44:26;;;;;;;3.15;1.83;;;;;;;22.93;41.00;101196.50;5092629;28;20054;-76
2022/09/03 00:47:09;;;;;;;3.35;1.70;;;;;;;22.93;40.74;101195.59;5092367;28;20381;-78
2022/09/03 00:49:53;;;;;;;2.13;1.58;;;;;;;22.92;40.97;101197.38;5089128;28;20094;-76
2022/09/03 00:55:05;;;;;;;2.60;1.70;;;;;;;22.92;40.82;101194.75;5065043;28;1271447;-78
2022/09/03 00:58:02;;;;;;;4.10;1.73;;;;;;;22.93;40.52;101192.97;5109112;28;20051;-79
2022/09/03 01:00:29;;;;;;;2.40;1.73;;;;;;;22.92;40.76;101188.66;5109451;28;20392;-77
2022/09/03 01:03:08;;;;;;;2.65;1.63;;;;;;;22.92;40.92;101193.91;5093443;28;20052;-75
2022/09/03 01:05:58;;;;;;;2.13;1.50;;;;;;;22.92;40.55;101186.88;5088879;28;20138;-77
2022/09/03 01:08:48;;;;;;;2.58;1.63;;;;;;;22.92;40.77;101192.13;5091574;28;20052;-79
2022/09/03 01:13:58;;;;;;;1.90;1.60;;;;;;;22.92;41.04;101186.03;5100331;28;20363;-76
2022/09/03 01:16:36;;;;;;;3.20;1.58;;;;;;;22.92;40.80;101180.78;5113125;28;20134;-77
2022/09/03 01:19:23;;;;;;;1.83;1.30;;;;;;;22.91;40.90;101186.94;5093192;28;20041;-77
2022/09/03 01:21:58;;;;;;;2.83;1.50;;;;;;;22.91;40.84;101179.06;5114094;28;20083;-77
2022/09/03 01:24:30;;;;;;;2.42;1.58;;;;;;;22.91;40.62;101179.94;5096907;28;20043;-77
2022/09/03 01:29:54;;;;;;;3.15;1.40;;;;;;;22.91;40.90;101186.94;5104669;28;20292;-75
2022/09/03 01:34:58;;;;;;;2.15;1.48;;;;;;;22.91;40.61;101193.03;5114325;28;20047;-76
2022/09/03 01:37:42;;;;;;;2.47;1.60;;;;;;;22.89;40.72;101186.97;5114061;28;20047;-79
2022/09/03 01:43:06;;;;;;;2.85;1.58;;;;;;;22.92;40.54;101188.66;5108004;28;20055;-77
2022/09/03 01:45:40;;;;;;;2.72;1.30;;;;;;;22.90;40.62;101186.06;5090039;28;20134;-78
2022/09/03 01:48:11;;;;;;;3.13;1.70;;;;;;;22.90;40.75;101187.84;5110658;28;20134;-77
2022/09/03 01:51:01;;;;;;;1.88;1.40;;;;;;;22.89;40.64;101173.00;5088632;28;20131;-78
2022/09/03 01:53:41;;;;;;;1.90;1.50;;;;;;;22.90;40.79;101185.22;5109012;28;20056;-78
2022/09/03 01:58:56;;;;;;;2.40;1.52;;;;;;;22.90;40.86;101190.44;5099074;28;20888;-77
2022/09/03 02:01:29;;;;;;;4.85;1.52;;;;;;;22.89;40.64;101189.59;5091499;28;20052;-78
2022/09/03 02:03:58;;;;;;;2.30;1.70;;;;;;;22.89;40.58;101186.13;5108200;28;20048;-77
2022/09/03 02:06:25;;;;;;;2.28;1.33;;;;;;;22.89;40.90;101189.59;5090960;28;20071;-78
2022/09/03 02:08:50;;;;;;;1.40;1.13;;;;;;;22.89;40.66;101189.59;5109967;28;20062;-77
2022/09/03 02:11:16;;;;;;;2.60;1.40;;;;;;;22.88;40.99;101182.63;5055382;28;20051;-78
2022/09/03 02:13:47;;;;;;;2.85;1.10;;;;;;;22.89;40.67;101186.97;5039906;28;20094;-77
2022/09/03 02:16:17;;;;;;;1.90;1.30;;;;;;;22.89;40.46;101188.75;5109920;28;20048;-78
2022/09/03 02:18:50;;;;;;;5.85;1.27;;;;;;;22.89;40.98;101186.97;5089575;28;20536;-77
2022/09/03 02:21:19;;;;;;;2.80;1.38;;;;;;;22.88;40.96;101166.88;5091054;28;20561;-78
2022/09/03 02:23:45;;;;;;;3.15;1.40;;;;;;;22.89;40.70;101173.84;5107844;28;20055;-78
2022/09/03 02:26:13;;;;;;;2.35;1.40;;;;;;;22.88;40.68;101179.13;5074938;28;20054;-78
2022/09/03 02:28:39;;;;;;;3.17;1.40;;;;;;;22.88;40.70;101180.00;5087924;28;20055;-77
2022/09/03 02:31:04;;;;;;;1.95;1.40;;;;;;;22.87;40.57;101170.41;5091618;28;20397;-76
2022/09/03 02:33:37;;;;;;;2.35;1.40;;;;;;;22.88;40.76;101169.50;5089609;28;20031;-77
2022/09/03 02:36:05;;;;;;;1.85;1.30;;;;;;;22.89;40.35;101173.00;5091230;28;20048;-77
2022/09/03 02:38:31;;;;;;;4.07;1.33;;;;;;;22.88;40.90;101176.50;5107335;28;20035;-77
2022/09/03 02:40:57;;;;;;;2.58;1.48;;;;;;;22.87;40.62;101167.78;5091496;28;20043;-77
2022/09/03 02:43:33;;;;;;;2.00;1.27;;;;;;;22.86;40.58;101163.41;5091171;28;20052;-77
2022/09/03 02:46:05;;;;;;;2.03;1.35;;;;;;;22.86;40.48;101160.78;5091844;28;20569;-80
2022/09/03 02:48:31;;;;;;;2.37;1.47;;;;;;;22.86;40.83;101165.19;5094159;28;20047;-79
2022/09/03 02:50:57;;;;;;;2.13;1.20;;;;;;;22.87;40.90;101166.94;5113302;28;20364;-79
2022/09/03 02:53:23;;;;;;;2.10;1.20;;;;;;;22.87;40.51;101169.56;5078527;28;20509;-80
2022/09/03 02:55:48;;;;;;;2.65;1.20;;;;;;;22.88;40.57;101166.00;5075555;28;20044;-81
2022/09/03 02:58:14;;;;;;;2.10;1.50;;;;;;;22.87;40.84;101166.94;5072846;28;20048;-80
2022/09/03 03:00:39;;;;;;;1.90;1.23;;;;;;;22.86;40.82;101163.41;5088737;28;20032;-79
2022/09/03 03:03:05;;;;;;;2.35;1.42;;;;;;;22.86;40.58;101168.66;5110023;28;20039;-81
2022/09/03 03:05:42;;;;;;;1.60;1.10;;;;;;;22.86;41.01;101165.19;5089671;28;20138;-79
2022/09/03 03:08:08;;;;;;;1.90;1.10;;;;;;;22.85;40.67;101166.09;5091005;28;20043;-81
2022/09/03 03:10:34;;;;;;;1.20;1.00;;;;;;;22.85;40.92;101171.34;5072065;28;20113;-81
2022/09/03 03:13:00;;;;;;;1.80;1.20;;;;;;;22.84;40.60;101170.47;5091298;28;20050;-80
2022/09/03 03:15:27;;;;;;;3.17;1.45;;;;;;;22.85;40.73;101166.09;5073190;28;20405;-79
2022/09/03 03:17:55;;;;;;;2.25;1.50;;;;;;;22.85;40.57;101166.97;5090433;28;20051;-81
2022/09/03 03:22:46;;;;;;;1.20;0.88;;;;;;;22.84;40.44;101174.88;5107612;28;20039;-80
2022/09/03 03:25:11;;;;;;;2.03;1.20;;;;;;;22.85;40.80;101168.72;5074233;28;20062;-80
2022/09/03 03:27:40;;;;;;;2.08;1.15;;;;;;;22.83;40.51;101166.13;5106897;28;20138;-81
2022/09/03 03:30:08;;;;;;;2.00;1.20;;;;;;;22.84;40.54;101172.25;5074622;28;20043;-80
2022/09/03 03:32:34;;;;;;;1.92;1.25;;;;;;;22.84;40.86;101172.25;5070626;28;20044;-79
2022/09/03 03:34:59;;;;;;;1.52;1.02;;;;;;;22.84;40.78;101162.59;5093374;28;20489;-79
2022/09/03 03:37:25;;;;;;;2.13;1.10;;;;;;;22.84;40.69;101159.97;5073798;28;20528;-80
2022/09/03 03:39:50;;;;;;;2.65;1.20;;;;;;;22.85;40.44;101166.09;5073219;28;20058;-80
2022/09/03 03:42:15;;;;;;;1.50;1.08;;;;;;;22.83;40.56;101166.13;5057683;28;20143;-80
2022/09/03 03:44:42;;;;;;;2.17;1.10;;;;;;;22.84;40.29;101170.47;5041028;28;20670;-79
2022/09/03 03:47:08;;;;;;;3.35;1.30;;;;;;;22.85;40.69;101173.97;5094600;28;20051;-80
2022/09/03 03:49:34;;;;;;;2.25;1.10;;;;;;;22.84;40.58;101177.50;5110916;28;20052;-79
2022/09/03 03:51:59;;;;;;;4.20;1.20;;;;;;;22.83;40.56;101174.00;5094436;28;20040;-79
2022/09/03 03:54:25;;;;;;;3.33;1.10;;;;;;;22.84;40.91;101172.25;5093287;28;20132;-79
2022/09/03 03:56:50;;;;;;;2.10;1.10;;;;;;;22.81;40.86;101175.81;5093277;28;20550;-80
2022/09/03 03:59:15;;;;;;;1.10;0.98;;;;;;;22.82;40.65;101172.31;5090622;28;20055;-79
2022/09/03 04:01:41;;;;;;;2.55;1.20;;;;;;;22.83;40.83;101171.38;5057416;28;20047;-80
2022/09/03 04:04:06;;;;;;;2.72;1.20;;;;;;;22.82;40.59;101169.69;5112912;28;20043;-80
2022/09/03 04:06:31;;;;;;;3.20;1.10;;;;;;;22.80;40.50;101167.09;5092035;28;20047;-81
2022/09/03 04:08:57;;;;;;;3.08;1.17;;;;;;;22.82;40.99;101158.31;5059955;28;20037;-81
2022/09/03 04:11:23;;;;;;;1.42;1.00;;;;;;;22.80;40.51;101169.72;5093420;28;20055;-79
2022/09/03 04:13:50;;;;;;;1.92;1.30;;;;;;;22.80;40.77;101161.84;5076128;28;20055;-79
2022/09/03 04:16:18;;;;;;;1.75;1.17;;;;;;;22.80;40.54;101169.72;5093955;28;20048;-79
2022/09/03 04:18:44;;;;;;;1.75;1.00;;;;;;;22.79;40.46;101165.34;5109965;28;20561;-80
2022/09/03 04:21:16;;;;;;;2.67;1.20;;;;;;;22.79;40.63;101164.50;5077044;28;20055;-82
2022/09/03 04:23:43;;;;;;;1.40;1.10;;;;;;;22.79;40.26;101173.22;5109603;28;20100;-80
2022/09/03 04:26:11;;;;;;;1.70;1.00;;;;;;;22.79;40.73;101165.34;5112104;28;20481;-79
2022/09/03 04:28:37;;;;;;;2.10;1.15;;;;;;;22.79;40.65;101164.50;5109741;28;20131;-82
2022/09/03 04:31:08;;;;;;;1.42;1.05;;;;;;;22.78;40.29;101165.41;5093393;28;20138;-80
2022/09/03 04:33:36;;;;;;;1.38;0.93;;;;;;;22.79;40.56;101165.34;5109511;28;20052;-81
2022/09/03 04:36:17;;;;;;;1.60;1.00;;;;;;;22.77;40.32;101161.91;5076778;28;20067;-81
2022/09/03 04:38:45;;;;;;;2.22;0.90;;;;;;;22.78;40.32;101163.63;5090612;28;20055;-79
2022/09/03 04:41:14;;;;;;;1.38;0.90;;;;;;;22.78;40.29;101157.53;5089986;28;20143;-79
2022/09/03 04:43:43;;;;;;;1.42;1.00;;;;;;;22.78;40.38;101154.91;5090429;28;20048;-80
2022/09/03 04:46:10;;;;;;;1.88;1.05;;;;;;;22.76;40.61;101152.31;5056652;28;20048;-79
2022/09/03 04:48:36;;;;;;;1.75;1.08;;;;;;;22.77;40.29;101148.78;5108754;28;20055;-82
2022/09/03 04:51:07;;;;;;;1.05;0.85;;;;;;;22.78;40.20;101157.53;5090358;28;20048;-78
2022/09/03 04:53:35;;;;;;;1.48;1.08;;;;;;;22.77;40.49;101153.19;5089431;28;20130;-77
2022/09/03 04:56:01;;;;;;;1.77;1.20;;;;;;;22.77;40.27;101153.19;5094019;28;20130;-77
2022/09/03 04:58:26;;;;;;;1.60;0.90;;;;;;;22.77;40.39;101153.19;5092311;28;20496;-79
2022/09/03 05:00:52;;;;;;;1.92;0.98;;;;;;;22.78;40.27;101144.41;5076280;28;20051;-79
2022/09/03 05:03:17;;;;;;;1.92;1.20;;;;;;;22.78;40.51;101155.78;5100551;28;20048;-77
2022/09/03 05:05:51;;;;;;;2.65;1.00;;;;;;;22.79;40.27;101148.75;5088240;28;20044;-79
2022/09/03 05:08:16;;;;;;;1.75;1.00;;;;;;;22.78;40.53;101147.91;5102893;28;20059;-79
2022/09/03 05:10:42;;;;;;;1.92;1.08;;;;;;;22.78;40.26;101149.66;5073393;28;1210202;-79
2022/09/03 05:13:07;;;;;;;1.90;0.98;;;;;;;22.79;40.44;101156.63;5094478;28;20446;-77
2022/09/03 05:15:32;;;;;;;1.45;1.00;;;;;;;22.79;40.36;101149.59;5090655;28;20044;-77
2022/09/03 05:18:00;;;;;;;3.15;1.13;;;;;;;22.79;40.50;101149.59;5076297;28;20055;-78
2022/09/03 05:20:28;;;;;;;3.38;1.10;;;;;;;22.82;40.26;101155.69;5090865;28;20096;-80
2022/09/03 05:22:54;;;;;;;2.22;0.93;;;;;;;22.82;40.18;101151.31;5109883;28;20079;-78
2022/09/03 05:25:20;;;;;;;1.92;1.30;;;;;;;22.82;40.42;101151.31;5075370;28;20038;-79
2022/09/03 05:27:45;;;;;;;4.85;1.00;;;;;;;22.83;40.36;101157.41;5089474;28;20098;-81
2022/09/03 05:30:11;;;;;;;1.88;0.80;;;;;;;22.80;40.19;101151.34;5075845;28;20036;-79
2022/09/03 05:32:36;;;;;;;1.83;1.08;;;;;;;22.80;40.42;101150.50;5090777;28;20044;-81
2022/09/03 05:35:02;;;;;;;1.50;0.90;;;;;;;22.79;40.11;101161.88;5075400;28;20058;-81
2022/09/03 05:37:28;;;;;;;1.30;1.00;;;;;;;22.77;40.12;101153.19;5073932;28;20051;-81
2022/09/03 05:39:56;;;;;;;1.13;0.90;;;;;;;22.77;40.55;101159.28;5075581;28;20075;-80
2022/09/03 05:42:21;;;;;;;2.53;1.08;;;;;;;22.75;40.23;101154.97;5092020;28;20489;-79
2022/09/03 05:44:48;;;;;;;1.48;0.90;;;;;;;22.76;40.25;101154.09;5070302;28;20052;-80
2022/09/03 05:47:14;;;;;;;1.65;1.00;;;;;;;22.76;40.43;101146.22;5089206;28;20071;-80
2022/09/03 05:49:40;;;;;;;3.03;1.08;;;;;;;22.75;40.31;101147.97;5072458;28;20079;-82
2022/09/03 05:52:05;;;;;;;1.40;0.90;;;;;;;22.77;40.28;101143.53;5093071;28;20090;-83
2022/09/03 05:54:31;;;;;;;1.75;0.93;;;;;;;22.80;39.95;101148.72;5090103;28;20086;-83
2022/09/03 05:56:56;;;;;;;1.73;1.00;;;;;;;22.93;39.17;101144.00;5071129;28;20059;-81
2022/09/03 05:59:22;;;;;;;1.45;0.98;;;;;;;23.14;38.21;101145.19;5071581;28;20052;-81
2022/09/03 06:01:48;;;;;;;1.48;1.00;;;;;;;23.29;37.81;101143.03;5073593;28;20108;-80
2022/09/03 06:04:15;;;;;;;1.92;1.10;;;;;;;23.39;36.85;101141.88;5058746;28;20074;-80
2022/09/03 06:06:45;;;;;;;2.38;1.33;;;;;;;23.48;36.04;101141.63;5072917;28;20355;-79
2022/09/03 06:09:14;;;;;;;2.95;1.17;;;;;;;23.57;35.30;101145.72;5091499;28;20444;-80
2022/09/03 06:11:41;;;;;;;3.03;1.20;;;;;;;23.65;34.47;101148.13;5089238;28;20036;-81
2022/09/03 06:14:09;;;;;;;2.35;1.23;;;;;;;23.69;34.15;101145.38;5091799;28;20108;-79
2022/09/03 06:16:47;;;;;;;2.65;1.50;;;;;;;23.69;34.32;101150.63;5072679;28;20040;-80
2022/09/03 06:19:13;;;;;;;2.17;1.20;;;;;;;23.66;34.27;101150.69;5091850;28;20043;-80
2022/09/03 06:21:43;;;;;;;3.33;1.20;;;;;;;23.60;33.58;101149.13;5072454;28;20043;-80
2022/09/03 06:24:17;;;;;;;3.03;1.40;;;;;;;24.06;31.95;101151.28;5074804;28;20047;-87
2022/09/03 06:26:43;;;;;;;4.50;1.70;;;;;;;25.40;29.30;101153.69;5089579;28;20052;-79
2022/09/03 06:29:10;;;;;;;5.18;1.40;;;;;;;25.98;28.22;101161.19;5071665;28;20051;-87
2022/09/03 06:31:35;;;;;;;4.72;1.60;;;;;;;26.17;27.82;101149.88;5071634;28;20039;-79
2022/09/03 06:34:00;;;;;;;3.50;1.40;;;;;;;26.19;27.48;101163.84;5087966;28;20048;-80
2022/09/03 06:36:26;;;;;;;3.22;1.40;;;;;;;25.61;28.23;101161.72;5070731;28;20489;-81
2022/09/03 06:38:54;;;;;;;4.38;1.40;;;;;;;24.58;30.30;101174.13;5090569;28;20381;-79
2022/09/03 06:43:48;;;;;;;5.18;1.73;;;;;;;23.56;31.78;101165.91;5107169;28;20059;-80
2022/09/03 06:46:15;;;;;;;4.63;1.45;;;;;;;23.47;32.26;101168.75;5109788;28;20126;-80
2022/09/03 06:48:42;;;;;;;3.95;1.50;;;;;;;23.41;31.81;101163.72;5073880;28;20052;-80
2022/09/03 06:51:16;;;;;;;4.65;1.48;;;;;;;23.38;32.04;101163.78;5093821;28;20089;-80
2022/09/03 06:53:44;;;;;;;4.20;1.50;;;;;;;23.34;32.02;101167.41;5107208;28;20067;-80
2022/09/03 06:56:12;;;;;;;5.75;1.40;;;;;;;23.30;32.42;101171.00;5090866;28;20122;-80
2022/09/03 06:58:43;;;;;;;6.35;1.40;;;;;;;23.34;32.44;101172.66;5087562;28;20044;-79
2022/09/03 07:01:11;;;;;;;5.50;1.50;;;;;;;23.30;31.98;101174.53;5091099;28;20043;-80
2022/09/03 07:03:38;;;;;;;5.20;1.65;;;;;;;23.49;31.88;101177.47;5088856;28;20082;-81
2022/09/03 07:06:15;;;;;;;3.58;1.52;;;;;;;23.92;31.08;101178.84;5074075;28;20047;-79
2022/09/03 07:08:41;;;;;;;3.53;1.48;;;;;;;23.91;31.12;101185.03;5090971;28;20498;-81
2022/09/03 07:11:10;;;;;;;6.05;1.48;;;;;;;23.68;31.73;101179.56;5078348;28;20155;-81
2022/09/03 07:13:42;;;;;;;3.90;1.30;;;;;;;23.51;31.69;101183.53;5092713;28;20413;-79
2022/09/03 07:16:11;;;;;;;4.70;1.60;;;;;;;23.47;31.85;101192.41;5113686;28;20051;-80
2022/09/03 07:18:37;;;;;;;3.92;1.42;;;;;;;23.35;32.03;101184.91;5092826;28;20301;-80
2022/09/03 07:21:08;;;;;;;2.90;1.30;;;;;;;23.35;31.62;101184.91;5085103;28;20040;-77
2022/09/03 07:23:34;;;;;;;2.10;1.30;;;;;;;23.40;32.02;101181.22;5099117;28;20079;-82
2022/09/03 07:26:02;;;;;;;2.97;1.65;;;;;;;23.34;31.76;101186.66;5101478;28;20054;-78
2022/09/03 07:28:28;;;;;;;3.28;1.50;;;;;;;23.56;31.47;101180.78;5098937;28;20052;-78
2022/09/03 07:30:59;;;;;;;3.70;1.45;;;;;;;23.60;31.51;101185.91;5097953;28;20052;-77
2022/09/03 07:33:25;;;;;;;2.95;1.50;;;;;;;23.79;31.29;101183.63;5092668;28;20048;-78
2022/09/03 07:35:51;;;;;;;2.40;1.30;;;;;;;23.86;31.01;101197.44;5077653;28;20096;-78
2022/09/03 07:38:18;;;;;;;2.88;1.33;;;;;;;23.97;31.00;101189.22;5094622;28;20048;-77
2022/09/03 07:40:45;;;;;;;2.28;1.10;;;;;;;23.96;31.09;101191.00;5092544;28;20052;-80
2022/09/03 07:43:11;;;;;;;6.88;1.35;;;;;;;23.93;31.09;101191.09;5112677;28;20047;-77
2022/09/03 07:45:37;;;;;;;3.75;1.77;;;;;;;24.01;31.26;101190.84;5092308;28;20127;-84
2022/09/03 07:48:03;;;;;;;2.40;1.38;;;;;;;24.19;30.81;101197.28;5094499;28;20135;-76
2022/09/03 07:50:32;;;;;;;3.22;1.50;;;;;;;24.15;31.08;101195.66;5110698;28;20122;-78
2022/09/03 07:52:58;;;;;;;3.85;1.23;;;;;;;24.08;31.23;101194.16;5094673;28;20040;-78
2022/09/03 07:55:24;;;;;;;5.95;1.60;;;;;;;23.95;31.56;101207.69;5093287;28;20059;-77
2022/09/03 07:57:54;;;;;;;4.65;1.42;;;;;;;23.97;31.09;101203.22;5093407;28;20142;-76
2022/09/03 08:00:20;;;;;;;8.75;1.30;;;;;;;23.94;31.53;101194.59;5094117;28;20051;-76
2022/09/03 08:02:45;;;;;;;6.10;1.52;;;;;;;24.06;31.43;101191.56;5075344;28;20051;-74
2022/09/03 08:05:10;;;;;;;8.40;1.40;;;;;;;23.81;31.69;101181.81;5112666;28;20075;-77
2022/09/03 08:07:36;;;;;;;2.50;1.35;;;;;;;23.91;31.95;101190.28;5075163;28;20058;-76
2022/09/03 08:10:01;;;;;;;5.05;1.50;;;;;;;23.89;31.67;101192.09;5093750;28;20047;-78
2022/09/03 08:12:27;;;;;;;6.38;1.58;;;;;;;23.97;31.84;101195.31;5092068;28;20581;-76
2022/09/03 08:14:52;;;;;;;5.13;1.48;;;;;;;23.85;32.04;101193.09;5076097;28;20044;-78
2022/09/03 08:17:17;;;;;;;7.65;1.50;;;;;;;23.91;31.88;101197.28;5093548;28;20056;-77
2022/09/03 08:19:45;;;;;;;5.25;2.13;;;;;;;23.87;31.89;101206.19;5109030;28;20409;-76
2022/09/03 08:22:10;;;;;;;3.30;1.40;;;;;;;23.88;32.15;101200.03;5076994;28;20518;-76
2022/09/03 08:24:36;;;;;;;6.10;1.50;;;;;;;23.78;31.85;101199.44;5074352;28;20040;-74
2022/09/03 08:27:02;;;;;;;3.47;1.42;;;;;;;23.73;32.29;101199.53;5111747;28;20078;-74
2022/09/03 08:29:27;;;;;;;3.25;1.50;;;;;;;23.75;32.13;101207.38;5092232;28;20040;-76
2022/09/03 08:31:56;;;;;;;4.15;1.50;;;;;;;23.63;32.26;101208.59;5072392;28;20108;-74
2022/09/03 08:36:46;;;;;;;3.30;1.40;;;;;;;23.62;32.87;101214.75;5101107;28;20129;-76
2022/09/03 08:39:12;;;;;;;6.53;1.40;;;;;;;23.66;32.47;101211.13;5113027;28;20369;-76
2022/09/03 08:42:01;;;;;;;3.70;1.25;;;;;;;23.56;32.49;101212.28;5091756;28;20048;-76
2022/09/03 08:44:30;;;;;;;3.88;1.33;;;;;;;23.56;33.12;101214.91;5110069;28;20100;-75
2022/09/03 08:47:14;;;;;;;5.45;1.30;;;;;;;23.52;32.71;101215.94;5110997;28;20044;-75
2022/09/03 08:49:49;;;;;;;2.97;1.20;;;;;;;23.53;32.95;101210.63;5108908;28;20505;-74
2022/09/03 08:54:48;;;;;;;4.85;1.30;;;;;;;23.46;33.19;101210.84;5109373;28;20048;-75
2022/09/03 08:57:15;;;;;;;7.65;1.40;;;;;;;23.46;33.03;101211.72;5093339;28;20040;-76
2022/09/03 08:59:40;;;;;;;5.00;1.52;;;;;;;23.49;32.88;101216.88;5091118;28;20454;-76
2022/09/03 09:05:04;;;;;;;5.43;1.42;;;;;;;23.38;33.47;101211.91;5108669;28;21510;-76
2022/09/03 09:07:41;;;;;;;3.45;1.40;;;;;;;23.35;33.58;101206.75;5108905;28;20401;-76
2022/09/03 09:10:18;;;;;;;4.63;1.38;;;;;;;23.41;33.39;101208.38;5110974;28;20040;-76
2022/09/03 09:13:07;;;;;;;7.85;1.45;;;;;;;23.33;33.55;101212.97;5090525;28;20090;-75
2022/09/03 09:15:57;;;;;;;3.05;1.30;;;;;;;23.32;33.64;101212.09;5090333;28;20031;-76
2022/09/03 09:18:34;;;;;;;4.78;1.30;;;;;;;23.31;33.98;101210.38;5110216;28;20055;-81
2022/09/03 09:21:12;;;;;;;4.38;1.45;;;;;;;23.33;33.59;101210.34;5109715;28;20108;-78
2022/09/03 09:23:46;;;;;;;2.47;1.40;;;;;;;23.25;34.04;101207.06;5044768;28;1296842;-76
2022/09/03 09:26:14;;;;;;;17.85;1.70;;;;;;;23.39;34.03;101205.78;5110887;28;20118;-81
2022/09/03 09:28:42;;;;;;;16.63;1.70;;;;;;;23.08;38.86;101213.63;5090804;28;20050;-75
2022/09/03 09:31:14;;;;;;;5.68;1.60;;;;;;;22.68;38.43;101217.25;5091624;28;20409;-77
2022/09/03 09:33:39;;;;;;;4.63;1.70;;;;;;;22.32;40.64;101214.63;5089790;28;20493;-78
2022/09/03 09:36:10;;;;;;;8.93;1.45;;;;;;;22.17;44.32;101215.78;5110424;28;20164;-79
2022/09/03 09:38:37;;;;;;;4.13;1.63;;;;;;;22.07;45.18;101213.41;5109709;28;20061;-81
2022/09/03 09:41:09;;;;;;;5.05;1.60;;;;;;;22.04;42.34;101211.72;5092073;28;20048;-81
2022/09/03 09:43:34;;;;;;;4.75;1.42;;;;;;;21.94;44.40;101210.19;5090265;28;20442;-77
2022/09/03 09:46:11;;;;;;;5.50;1.40;;;;;;;22.04;43.05;101216.13;5075623;28;20054;-79
2022/09/03 09:48:47;;;;;;;5.72;1.40;;;;;;;21.94;46.18;101202.34;5090178;28;20131;-79
2022/09/03 09:51:17;;;;;;;5.03;1.45;;;;;;;21.92;47.28;101212.00;5088729;28;20436;-79
2022/09/03 09:53:43;;;;;;;11.80;1.52;;;;;;;21.97;43.95;101215.38;5089626;28;20067;-78
2022/09/03 09:56:20;;;;;;;3.60;1.60;;;;;;;22.03;46.95;101222.25;5088866;28;20406;-78
2022/09/03 09:58:47;;;;;;;6.55;1.70;;;;;;;21.99;43.17;101218.81;5086681;28;20043;-79
2022/09/03 10:03:56;;;;;;;;;;;;;;;22.03;43.00;101217.84;5108594;28;20378;-78
2022/09/03 10:08:47;;;;;;;4.83;1.53;;;;;;;21.98;44.42;101214.47;5108280;28;20052;-79
2022/09/03 10:11:13;;;;;;;2.35;1.42;;;;;;;21.95;44.54;101215.41;5092589;28;20047;-76
2022/09/03 10:13:46;;;;;;;4.47;1.48;;;;;;;22.06;44.06;101211.66;5090216;28;20059;-79
2022/09/03 10:18:52;;;;;;;2.55;1.40;;;;;;;22.05;45.01;101209.97;5107974;28;20111;-77
2022/09/03 10:21:22;;;;;;;6.65;1.50;;;;;;;22.01;41.50;101203.91;5109868;28;20047;-77
2022/09/03 10:23:57;;;;;;;5.78;1.50;;;;;;;21.94;45.74;101197.94;5108490;28;20052;-81
2022/09/03 10:26:29;;;;;;;5.00;1.30;;;;;;;22.10;44.24;101203.75;5090939;28;20063;-80
2022/09/03 10:29:04;;;;;;;5.13;1.50;;;;;;;22.07;44.03;101198.53;5090362;28;20075;-81
2022/09/03 10:31:39;;;;;;;4.95;1.60;;;;;;;22.04;44.97;101201.25;5087381;28;20059;-79
2022/09/03 10:34:17;;;;;;;4.03;1.60;;;;;;;22.10;41.86;101203.75;5110606;28;20063;-78
2022/09/03 10:37:15;;;;;;;2.20;1.33;;;;;;;22.19;42.42;101200.03;5089958;28;20147;-81
2022/09/03 10:40:08;;;;;;;2.75;1.33;;;;;;;22.16;45.15;101203.56;5107390;28;20058;-78
2022/09/03 10:42:54;;;;;;;4.57;1.60;;;;;;;22.11;44.02;101200.19;5108354;28;20048;-79
2022/09/03 10:48:12;;;;;;;4.47;1.38;;;;;;;22.23;41.29;101196.47;5111821;28;20753;-80
2022/09/03 10:50:43;;;;;;;5.35;1.30;;;;;;;22.23;42.06;101191.22;5093021;28;20412;-81
2022/09/03 10:56:08;;;;;;;9.43;1.60;;;;;;;22.29;42.67;101195.47;5111720;28;21221;-83
2022/09/03 10:58:52;;;;;;;3.38;1.40;;;;;;;22.34;43.71;101188.34;5093086;28;20058;-79
2022/09/03 11:03:52;;;;;;;2.55;1.33;;;;;;;22.34;40.93;101190.97;5111856;28;20710;-79
2022/09/03 11:09:15;;;;;;;2.80;1.30;;;;;;;22.31;41.66;101194.53;5111869;28;20043;-81
2022/09/03 11:11:50;;;;;;;4.43;1.35;;;;;;;22.34;41.64;101197.09;5092533;28;20512;-80
2022/09/03 11:16:59;;;;;;;5.57;1.60;;;;;;;22.42;39.57;101193.41;5110942;28;20112;-79
2022/09/03 11:19:35;;;;;;;9.95;1.50;;;;;;;22.35;41.19;101193.56;5112050;28;20519;-78
2022/09/03 11:22:04;;;;;;;2.58;1.33;;;;;;;22.32;40.98;101196.25;5090577;28;20075;-79
2022/09/03 11:24:32;;;;;;;3.45;1.10;;;;;;;22.49;38.69;101189.75;5090480;28;20452;-79
2022/09/03 11:27:06;;;;;;;3.75;1.30;;;;;;;22.46;39.77;101184.59;5094641;28;20044;-78
2022/09/03 11:29:50;;;;;;;2.75;1.35;;;;;;;22.45;40.04;101186.34;5092354;28;20043;-78
2022/09/03 11:34:49;;;;;;;3.03;1.30;;;;;;;22.47;39.87;101188.91;5111136;28;20059;-80
2022/09/03 11:40:06;;;;;;;3.03;1.30;;;;;;;22.52;40.09;101187.06;5103168;28;21168;-81
2022/09/03 11:42:38;;;;;;;6.53;1.45;;;;;;;22.51;39.83;101186.16;5092877;28;20055;-81
2022/09/03 11:47:47;;;;;;;5.37;1.50;;;;;;;22.54;38.21;101178.25;5102767;28;21212;-87
2022/09/03 11:52:50;;;;;;;5.03;1.30;;;;;;;22.70;38.55;101172.63;5111735;28;20877;-87
2022/09/03 11:57:47;;;;;;;7.43;2.28;;;;;;;22.84;39.23;101164.38;5111145;28;20056;-83
2022/09/03 12:00:21;;;;;;;8.57;2.50;;;;;;;22.74;42.47;101179.50;5078743;28;20062;-87
2022/09/03 12:02:56;;;;;;;6.82;2.20;;;;;;;22.67;43.40;101175.28;5110729;28;21329;-85
2022/09/03 12:11:03;;;;;;;4.30;1.90;;;;;;;22.43;46.32;101172.41;5103259;28;20108;-86
2022/09/03 12:13:59;;;;;;;7.30;1.70;;;;;;;22.33;47.49;101178.78;5096377;28;20051;-88
2022/09/03 12:16:40;;;;;;;4.30;1.70;;;;;;;22.29;46.96;101175.34;5112267;28;20043;-84
2022/09/03 12:19:16;;;;;;;6.97;1.60;;;;;;;22.26;47.88;101179.81;5093725;28;20051;-85
2022/09/03 12:21:41;;;;;;;5.47;1.27;;;;;;;22.28;47.47;101181.50;5092432;28;20067;-84
2022/09/03 12:24:12;;;;;;;4.22;1.33;;;;;;;22.28;46.68;101175.41;5076974;28;20093;-87
2022/09/03 12:26:40;;;;;;;3.55;1.60;;;;;;;22.36;44.83;101182.19;5074680;28;20394;-84
2022/09/03 12:29:06;;;;;;;5.40;1.50;;;;;;;22.39;43.74;101179.47;5094481;28;20445;-84
2022/09/03 12:31:53;;;;;;;2.80;1.33;;;;;;;22.44;42.30;101174.13;5092363;28;20120;-82
2022/09/03 12:34:19;;;;;;;3.42;1.27;;;;;;;22.51;41.92;101173.06;5080858;28;20096;-85
2022/09/03 12:36:50;;;;;;;2.03;1.23;;;;;;;22.46;45.24;101171.47;5091934;28;20054;-85
2022/09/03 12:42:00;;;;;;;6.40;1.50;;;;;;;22.46;43.65;101171.47;5110990;28;20044;-87
2022/09/03 12:44:28;;;;;;;5.32;1.08;;;;;;;22.48;42.83;101169.66;5094026;28;20047;-84
2022/09/03 12:47:09;;;;;;;3.38;1.27;;;;;;;22.49;42.41;101185.34;5079648;28;20047;-85
2022/09/03 12:49:41;;;;;;;2.65;1.20;;;;;;;22.53;40.47;101181.75;5122010;28;20048;-85
2022/09/03 12:52:15;;;;;;;3.13;1.27;;;;;;;22.61;40.90;101178.94;5110152;28;20047;-84
2022/09/03 12:54:51;;;;;;;4.07;1.42;;;;;;;22.63;39.72;101171.91;5102348;28;20055;-85